Time;durP1;ratioP1;P1;durP2;ratioP2;P2;SDS_P1;SDS_P2;PMS_P1;PMS_P2;Temp;Humidity;BMP_temperature;BMP_pressure;BME280_temperature;BME280_humidity;BME280_pressure;Samples;Min_cycle;Max_cycle;Signal;HPM_P1;HPM_P2
2022/09/10 00:01:00;;;;;;;1999.90;999.90;;;18.00;99.90;;;;;;5054667;28;20025;-72
2022/09/10 00:03:26;;;;;;;1999.90;999.90;;;18.00;99.90;;;;;;5054844;28;20067;-72
2022/09/10 00:05:53;;;;;;;1999.90;999.90;;;18.00;99.90;;;;;;5054856;28;20028;-72
2022/09/10 00:08:20;;;;;;;1999.90;999.90;;;18.00;99.90;;;;;;5055186;28;20487;-79
2022/09/10 00:10:49;;;;;;;1999.90;999.90;;;18.00;99.90;;;;;;5054456;28;20032;-71
2022/09/10 00:13:18;;;;;;;1999.90;999.90;;;17.90;99.90;;;;;;5054162;28;20017;-71
2022/09/10 00:15:48;;;;;;;1999.90;999.90;;;17.90;99.90;;;;;;5054175;28;20041;-79
2022/09/10 00:18:15;;;;;;;1999.90;999.90;;;17.80;99.90;;;;;;5054921;28;20027;-79
2022/09/10 00:20:42;;;;;;;1999.90;999.90;;;17.80;99.90;;;;;;5054467;28;20067;-79
2022/09/10 00:23:09;;;;;;;1999.90;999.90;;;17.80;99.90;;;;;;5054056;28;20021;-79
2022/09/10 00:25:35;;;;;;;1999.90;999.90;;;17.80;99.90;;;;;;5054437;28;20067;-71
2022/09/10 00:28:01;;;;;;;1999.90;999.90;;;17.80;99.90;;;;;;5053851;28;20052;-79
2022/09/10 00:30:27;;;;;;;1999.90;999.90;;;17.70;99.90;;;;;;5054271;28;20553;-72
2022/09/10 00:32:53;;;;;;;1999.90;999.90;;;17.70;99.90;;;;;;5054565;28;20025;-79
2022/09/10 00:35:19;;;;;;;1999.90;999.90;;;17.70;99.90;;;;;;5054129;28;20107;-79
2022/09/10 00:37:45;;;;;;;1999.90;999.90;;;17.80;99.90;;;;;;5054024;28;20056;-72
2022/09/10 00:40:12;;;;;;;1999.90;999.90;;;17.80;99.90;;;;;;5052013;28;20025;-72
2022/09/10 00:42:42;;;;;;;1999.90;999.90;;;17.90;99.90;;;;;;5033813;28;20087;-72
2022/09/10 00:45:33;;;;;;;1999.90;999.90;;;17.90;99.90;;;;;;5033858;28;20034;-79
2022/09/10 00:48:04;;;;;;;1999.90;999.90;;;17.90;99.90;;;;;;5033795;28;20481;-79
2022/09/10 00:50:35;;;;;;;1999.90;999.90;;;17.80;99.90;;;;;;5033097;28;20021;-72
2022/09/10 00:53:05;;;;;;;1999.90;999.90;;;17.80;99.90;;;;;;5034095;28;20022;-71
2022/09/10 00:55:34;;;;;;;1999.90;999.90;;;17.80;99.90;;;;;;5033761;28;20366;-72
2022/09/10 00:58:02;;;;;;;1999.90;999.90;;;17.80;99.90;;;;;;5033496;28;20405;-79
2022/09/10 01:00:30;;;;;;;1999.90;999.90;;;17.80;99.90;;;;;;5051752;28;20025;-79
2022/09/10 01:02:56;;;;;;;1999.90;999.90;;;17.70;99.90;;;;;;5052349;28;20393;-72
2022/09/10 01:05:23;;;;;;;1999.90;999.90;;;17.80;99.90;;;;;;5054037;28;20151;-72
2022/09/10 01:07:48;;;;;;;1999.90;999.90;;;17.70;99.90;;;;;;5053458;28;20052;-72
2022/09/10 01:10:20;;;;;;;1999.90;999.90;;;17.80;99.90;;;;;;5053183;28;20063;-79
2022/09/10 01:13:04;;;;;;;1999.90;999.90;;;17.70;99.90;;;;;;5053014;28;20025;-79
2022/09/10 01:15:41;;;;;;;1999.90;999.90;;;17.70;99.90;;;;;;5052132;28;20259;-79
2022/09/10 01:18:51;;;;;;;1999.90;999.90;;;17.70;99.90;;;;;;5038944;28;20033;-71
2022/09/10 01:21:39;;;;;;;1999.90;999.90;;;17.70;99.90;;;;;;5031227;28;20033;-79
2022/09/10 01:24:25;;;;;;;1999.90;999.90;;;17.60;99.90;;;;;;5032899;28;20041;-72
2022/09/10 01:27:05;;;;;;;1999.90;999.90;;;17.70;99.90;;;;;;5033365;28;20025;-79
2022/09/10 01:29:49;;;;;;;1999.90;999.90;;;17.70;99.90;;;;;;5032890;28;20565;-71
2022/09/10 01:32:27;;;;;;;1999.90;999.90;;;17.60;99.90;;;;;;5032973;28;20056;-72
2022/09/10 01:35:04;;;;;;;1999.90;999.90;;;17.70;99.90;;;;;;5032994;28;20022;-71
2022/09/10 01:37:32;;;;;;;1999.90;999.90;;;17.60;99.90;;;;;;5032959;28;20105;-72
2022/09/10 01:39:58;;;;;;;1999.90;999.90;;;17.70;99.90;;;;;;5051106;28;20021;-79
2022/09/10 01:42:28;;;;;;;1999.90;999.90;;;17.70;99.90;;;;;;5036754;28;20025;-72
2022/09/10 01:44:56;;;;;;;1999.90;999.90;;;17.70;99.90;;;;;;5033239;28;20413;-72
2022/09/10 01:47:37;;;;;;;1999.90;999.90;;;17.80;99.90;;;;;;5032931;28;20436;-72
2022/09/10 01:50:18;;;;;;;1999.90;999.90;;;17.80;99.90;;;;;;5033041;28;20021;-72
2022/09/10 01:52:58;;;;;;;1999.90;999.90;;;17.80;99.90;;;;;;5033132;28;20492;-71
2022/09/10 01:55:57;;;;;;;1999.90;999.90;;;17.80;99.90;;;;;;5032796;28;20033;-72
2022/09/10 01:58:35;;;;;;;1999.90;999.90;;;17.80;99.90;;;;;;5034961;28;20025;-72
2022/09/10 02:01:27;;;;;;;1999.90;999.90;;;17.80;99.90;;;;;;5051842;28;20059;-72
2022/09/10 02:04:00;;;;;;;1999.90;999.90;;;17.80;99.90;;;;;;5056908;28;20033;-79
2022/09/10 02:06:29;;;;;;;1999.90;999.90;;;17.80;99.90;;;;;;5057034;28;20112;-79
2022/09/10 02:08:57;;;;;;;1999.90;999.90;;;17.80;99.90;;;;;;5056820;28;20108;-71
2022/09/10 02:11:23;;;;;;;1999.90;999.90;;;17.80;99.90;;;;;;5056948;28;20020;-72
2022/09/10 02:13:49;;;;;;;1999.90;999.90;;;17.80;99.90;;;;;;5056709;28;20386;-80
2022/09/10 02:16:29;;;;;;;1999.90;999.90;;;17.80;99.90;;;;;;5056608;28;20049;-72
2022/09/10 02:18:57;;;;;;;1999.90;999.90;;;17.80;99.90;;;;;;5056389;28;20054;-78
2022/09/10 02:21:24;;;;;;;1999.90;999.90;;;17.70;99.90;;;;;;5056205;28;20029;-72
2022/09/10 02:23:57;;;;;;;1999.90;999.90;;;17.70;99.90;;;;;;5056163;28;20054;-72
2022/09/10 02:26:24;;;;;;;1999.90;999.90;;;17.70;99.90;;;;;;5056278;28;20016;-72
2022/09/10 02:28:51;;;;;;;1999.90;999.90;;;17.60;99.90;;;;;;5056068;28;20053;-72
2022/09/10 02:31:17;;;;;;;1999.90;999.90;;;17.60;99.90;;;;;;5056102;28;20021;-72
2022/09/10 02:33:43;;;;;;;1999.90;999.90;;;17.60;99.90;;;;;;5056210;28;20036;-72
2022/09/10 02:36:09;;;;;;;1999.90;999.90;;;17.50;99.90;;;;;;5056131;28;20103;-72
2022/09/10 02:38:34;;;;;;;1999.90;999.90;;;17.40;99.90;;;;;;5056097;28;20053;-78
2022/09/10 02:41:00;;;;;;;1999.90;999.90;;;17.30;99.90;;;;;;5051449;28;20029;-79
2022/09/10 02:43:27;;;;;;;1999.90;999.90;;;17.30;99.90;;;;;;5036203;28;20444;-79
2022/09/10 02:45:56;;;;;;;1999.90;999.90;;;17.20;99.90;;;;;;5035860;28;20025;-72
2022/09/10 02:48:26;;;;;;;1999.90;999.90;;;17.20;99.90;;;;;;5036074;28;20427;-72
2022/09/10 02:50:53;;;;;;;1999.90;999.90;;;17.20;99.90;;;;;;5036096;28;20461;-72
2022/09/10 02:53:19;;;;;;;1999.90;999.90;;;17.20;99.90;;;;;;5035925;28;20041;-79
2022/09/10 02:55:46;;;;;;;1999.90;999.90;;;17.20;99.90;;;;;;5035905;28;20048;-72
2022/09/10 02:58:13;;;;;;;1999.90;999.90;;;17.20;99.90;;;;;;5036430;28;20036;-79
2022/09/10 03:00:39;;;;;;;1999.90;999.90;;;17.20;99.90;;;;;;5055434;28;20484;-72
2022/09/10 03:03:05;;;;;;;1999.90;999.90;;;17.20;99.90;;;;;;5055680;28;20025;-71
2022/09/10 03:05:31;;;;;;;1999.90;999.90;;;17.10;99.90;;;;;;5056001;28;20514;-71
2022/09/10 03:07:58;;;;;;;1999.90;999.90;;;17.10;99.90;;;;;;5055748;28;20025;-79
2022/09/10 03:10:24;;;;;;;1999.90;999.90;;;17.00;99.90;;;;;;5055604;28;20078;-79
2022/09/10 03:12:49;;;;;;;1999.90;999.90;;;17.00;99.90;;;;;;5054780;28;20029;-71
2022/09/10 03:15:16;;;;;;;1999.90;999.90;;;17.00;99.90;;;;;;5053535;28;20104;-71
2022/09/10 03:17:42;;;;;;;1999.90;999.90;;;16.90;99.90;;;;;;5055615;28;20024;-72
2022/09/10 03:20:08;;;;;;;1999.90;999.90;;;16.90;99.90;;;;;;5055230;28;20041;-72
2022/09/10 03:22:34;;;;;;;1999.90;999.90;;;16.90;99.90;;;;;;5055237;28;20025;-73
2022/09/10 03:24:59;;;;;;;1999.90;999.90;;;16.80;99.90;;;;;;5055109;28;20062;-71
2022/09/10 03:27:25;;;;;;;1999.90;999.90;;;16.70;99.90;;;;;;5055384;28;20108;-72
2022/09/10 03:29:50;;;;;;;1999.90;999.90;;;16.60;99.90;;;;;;5054574;28;20056;-72
2022/09/10 03:32:16;;;;;;;1999.90;999.90;;;16.50;99.90;;;;;;5055036;28;20477;-79
2022/09/10 03:34:43;;;;;;;1999.90;999.90;;;16.50;99.90;;;;;;5055189;28;20025;-79
2022/09/10 03:37:08;;;;;;;1999.90;999.90;;;16.50;99.90;;;;;;5055006;28;20045;-72
2022/09/10 03:39:34;;;;;;;1999.90;999.90;;;16.40;99.90;;;;;;5054838;28;20053;-72
2022/09/10 03:42:00;;;;;;;1999.90;999.90;;;16.40;99.90;;;;;;5042640;28;20033;-71
2022/09/10 03:44:25;;;;;;;1999.90;999.90;;;16.40;99.90;;;;;;5035082;28;20063;-79
2022/09/10 03:46:51;;;;;;;1999.90;999.90;;;16.40;99.90;;;;;;5034543;28;20056;-79
2022/09/10 03:49:17;;;;;;;1999.90;999.90;;;16.40;99.90;;;;;;5034963;28;20025;-79
2022/09/10 03:51:42;;;;;;;1999.90;999.90;;;16.40;99.90;;;;;;5034674;28;20099;-79
2022/09/10 03:54:08;;;;;;;1999.90;999.90;;;16.40;99.90;;;;;;5034858;28;20069;-72
2022/09/10 03:56:34;;;;;;;1999.90;999.90;;;16.40;99.90;;;;;;5034798;28;20056;-72
2022/09/10 03:59:00;;;;;;;1999.90;999.90;;;16.40;99.90;;;;;;5041877;28;20036;-79
2022/09/10 04:01:25;;;;;;;1999.90;999.90;;;16.40;99.90;;;;;;5054352;28;20104;-79
2022/09/10 04:03:55;;;;;;;1999.90;999.90;;;16.40;99.90;;;;;;5053900;28;20476;-71
2022/09/10 04:06:21;;;;;;;1999.90;999.90;;;16.40;99.90;;;;;;5054620;28;20021;-72
2022/09/10 04:08:53;;;;;;;1999.90;999.90;;;16.40;99.90;;;;;;5054597;28;20040;-72
2022/09/10 04:11:19;;;;;;;1999.90;999.90;;;16.30;99.90;;;;;;5054336;28;20395;-72
2022/09/10 04:13:47;;;;;;;1999.90;999.90;;;16.30;99.90;;;;;;5053723;28;20029;-72
2022/09/10 04:16:15;;;;;;;1999.90;999.90;;;16.20;99.90;;;;;;5053629;28;20041;-71
2022/09/10 04:18:41;;;;;;;1999.90;999.90;;;16.20;99.90;;;;;;5054194;28;20503;-72
2022/09/10 04:21:07;;;;;;;1999.90;999.90;;;16.20;99.90;;;;;;5054122;28;20032;-72
2022/09/10 04:23:32;;;;;;;1999.90;999.90;;;16.20;99.90;;;;;;5054014;28;20032;-79
2022/09/10 04:25:58;;;;;;;1999.90;999.90;;;16.10;99.90;;;;;;5054242;28;20060;-71
2022/09/10 04:28:24;;;;;;;1999.90;999.90;;;16.10;99.90;;;;;;5052764;28;20148;-79
2022/09/10 04:30:50;;;;;;;1999.90;999.90;;;16.10;99.90;;;;;;5053832;28;20040;-72
2022/09/10 04:33:16;;;;;;;1999.90;999.90;;;16.10;99.90;;;;;;5054053;28;20078;-71
2022/09/10 04:35:42;;;;;;;1999.90;999.90;;;16.00;99.90;;;;;;5053939;28;20040;-78
2022/09/10 04:38:08;;;;;;;1999.90;999.90;;;15.90;99.90;;;;;;5053971;28;20017;-71
2022/09/10 04:40:34;;;;;;;1999.90;999.90;;;15.90;99.90;;;;;;5053189;28;20035;-78
2022/09/10 04:43:00;;;;;;;1999.90;999.90;;;15.90;99.90;;;;;;5066272;28;20036;-79
2022/09/10 04:45:26;;;;;;;1999.90;999.90;;;15.90;99.90;;;;;;5033662;28;20485;-71
2022/09/10 04:47:53;;;;;;;1999.90;999.90;;;15.90;99.90;;;;;;5032635;28;20041;-72
2022/09/10 04:50:19;;;;;;;1999.90;999.90;;;15.90;99.90;;;;;;5033792;28;20022;-72
2022/09/10 04:52:44;;;;;;;1999.90;999.90;;;15.90;99.90;;;;;;5033760;28;20079;-79
2022/09/10 04:55:10;;;;;;;1999.90;999.90;;;15.90;99.90;;;;;;5033755;28;20104;-71
2022/09/10 04:57:37;;;;;;;1999.90;999.90;;;15.90;99.90;;;;;;5033847;28;20032;-78
2022/09/10 05:00:07;;;;;;;1999.90;999.90;;;15.90;99.90;;;;;;5049160;28;20021;-72
2022/09/10 05:02:33;;;;;;;1999.90;999.90;;;15.90;99.90;;;;;;5053386;28;20103;-71
2022/09/10 05:04:59;;;;;;;1999.90;999.90;;;15.90;99.90;;;;;;5053651;28;20052;-71
2022/09/10 05:07:24;;;;;;;1999.90;999.90;;;15.80;99.90;;;;;;5053520;28;20523;-72
2022/09/10 05:09:50;;;;;;;1999.90;999.90;;;15.80;99.90;;;;;;5053422;28;20025;-71
2022/09/10 05:12:18;;;;;;;1999.90;999.90;;;15.80;99.90;;;;;;5053205;28;20013;-72
2022/09/10 05:14:44;;;;;;;1999.90;999.90;;;15.80;99.90;;;;;;5053428;28;20099;-79
2022/09/10 05:17:10;;;;;;;1999.90;999.90;;;15.80;99.90;;;;;;5052177;28;20108;-71
2022/09/10 05:19:35;;;;;;;1999.90;999.90;;;15.80;99.90;;;;;;5053118;28;20395;-71
2022/09/10 05:22:01;;;;;;;1999.90;999.90;;;15.80;99.90;;;;;;5053180;28;20031;-79
2022/09/10 05:24:27;;;;;;;1999.90;999.90;;;15.80;99.90;;;;;;5052922;28;20029;-71
2022/09/10 05:26:52;;;;;;;1999.90;999.90;;;15.90;99.90;;;;;;5053352;28;20025;-79
2022/09/10 05:29:18;;;;;;;1999.90;999.90;;;15.80;99.90;;;;;;5052808;28;20484;-79
2022/09/10 05:31:44;;;;;;;1999.90;999.90;;;15.80;99.90;;;;;;5052748;28;20036;-79
2022/09/10 05:34:10;;;;;;;1999.90;999.90;;;15.90;99.90;;;;;;5053005;28;20024;-72
2022/09/10 05:36:35;;;;;;;1999.90;999.90;;;15.90;99.90;;;;;;5039652;28;20029;-71
2022/09/10 05:39:02;;;;;;;1999.90;999.90;;;15.90;99.90;;;;;;5043710;28;20049;-71
2022/09/10 05:41:29;;;;;;;1999.90;999.90;;;15.90;99.90;;;;;;5044648;28;20021;-79
2022/09/10 05:43:55;;;;;;;1999.90;999.90;;;15.90;99.90;;;;;;5032996;28;20381;-71
2022/09/10 05:46:22;;;;;;;1999.90;999.90;;;16.00;99.90;;;;;;5032586;28;20044;-79
2022/09/10 05:48:47;;;;;;;1999.90;999.90;;;16.00;99.90;;;;;;5033048;28;20028;-71
2022/09/10 05:51:13;;;;;;;1999.90;999.90;;;16.00;99.90;;;;;;5033355;28;20408;-72
2022/09/10 05:53:40;;;;;;;1999.90;999.90;;;16.00;99.90;;;;;;5033021;28;20076;-79
2022/09/10 05:56:06;;;;;;;1999.90;999.90;;;16.10;99.90;;;;;;5033047;28;20024;-71
2022/09/10 05:58:33;;;;;;;1999.90;999.90;;;16.00;99.90;;;;;;5036118;28;20021;-71
2022/09/10 06:01:01;;;;;;;1999.90;999.90;;;16.10;99.90;;;;;;5052468;28;20017;-79
2022/09/10 06:03:27;;;;;;;1999.90;999.90;;;16.10;99.90;;;;;;5052965;28;20052;-71
2022/09/10 06:05:54;;;;;;;1999.90;999.90;;;16.10;99.90;;;;;;5052951;28;20392;-71
2022/09/10 06:08:21;;;;;;;1999.90;999.90;;;16.20;99.90;;;;;;5053066;28;20098;-79
2022/09/10 06:11:06;;;;;;;1999.90;999.90;;;16.20;99.90;;;;;;5052551;28;20449;-79
2022/09/10 06:13:33;;;;;;;1999.90;999.90;;;16.20;99.90;;;;;;5052669;28;20062;-79
2022/09/10 06:16:00;;;;;;;1999.90;999.90;;;16.30;99.90;;;;;;5052108;28;20075;-71
2022/09/10 06:18:26;;;;;;;1999.90;999.90;;;16.40;99.90;;;;;;5052009;28;20553;-71
2022/09/10 06:21:05;;;;;;;1999.90;999.90;;;16.50;99.90;;;;;;5052376;28;20017;-79
2022/09/10 06:23:31;;;;;;;1999.90;999.90;;;16.60;99.90;;;;;;5052461;28;20051;-79
2022/09/10 06:26:05;;;;;;;1999.90;999.90;;;16.70;99.90;;;;;;5052534;28;20492;-78
2022/09/10 06:28:32;;;;;;;1999.90;999.90;;;16.80;99.90;;;;;;5052524;28;20136;-71
2022/09/10 06:30:58;;;;;;;1999.90;999.90;;;16.90;99.90;;;;;;5052052;28;20075;-71
2022/09/10 06:33:24;;;;;;;1999.90;999.90;;;17.00;99.90;;;;;;5052614;28;20032;-79
2022/09/10 06:35:54;;;;;;;1999.90;999.90;;;17.10;99.90;;;;;;5050946;28;20058;-71
2022/09/10 06:38:20;;;;;;;1999.90;999.90;;;17.20;99.90;;;;;;5052474;28;20021;-72
2022/09/10 06:40:56;;;;;;;1999.90;999.90;;;17.30;99.90;;;;;;5049918;28;20025;-71
2022/09/10 06:43:24;;;;;;;1999.90;999.90;;;17.30;99.90;;;;;;5032608;28;20029;-79
2022/09/10 06:45:51;;;;;;;1999.90;999.90;;;17.40;99.90;;;;;;5032109;28;20099;-79
2022/09/10 06:48:20;;;;;;;1999.90;999.90;;;17.30;99.90;;;;;;5032976;28;20040;-71
2022/09/10 06:51:00;;;;;;;1999.90;999.90;;;17.20;99.90;;;;;;5036397;28;20075;-71
2022/09/10 06:53:27;;;;;;;1999.90;999.90;;;16.90;99.90;;;;;;5036178;28;20100;-72
2022/09/10 06:55:54;;;;;;;1999.90;999.90;;;16.90;99.90;;;;;;5036012;28;20021;-71
2022/09/10 06:58:22;;;;;;;1999.90;999.90;;;16.90;99.90;;;;;;5037377;28;20052;-72
2022/09/10 07:00:49;;;;;;;1999.90;999.90;;;17.00;99.90;;;;;;5055818;28;20526;-79
2022/09/10 07:03:19;;;;;;;1999.90;999.90;;;17.00;99.90;;;;;;5056197;28;20036;-79
2022/09/10 07:05:45;;;;;;;1999.90;999.90;;;17.10;99.90;;;;;;5055712;28;20404;-72
2022/09/10 07:08:13;;;;;;;1999.90;999.90;;;17.20;99.90;;;;;;5055843;28;20033;-72
2022/09/10 07:10:39;;;;;;;1999.90;999.90;;;17.30;99.90;;;;;;5055514;28;20104;-72
2022/09/10 07:13:06;;;;;;;1999.90;999.90;;;17.40;99.90;;;;;;5055517;28;20108;-72
2022/09/10 07:15:32;;;;;;;1999.90;999.90;;;17.60;99.90;;;;;;5054774;28;20057;-79
2022/09/10 07:17:58;;;;;;;1999.90;999.90;;;17.70;99.90;;;;;;5054888;28;20044;-71
2022/09/10 07:20:26;;;;;;;1999.90;999.90;;;17.80;99.90;;;;;;5055331;28;20108;-72
2022/09/10 07:22:55;;;;;;;1999.90;999.90;;;17.90;99.90;;;;;;5054977;28;20108;-71
2022/09/10 07:25:22;;;;;;;1999.90;999.90;;;18.20;99.90;;;;;;5055096;28;20021;-79
2022/09/10 07:27:49;;;;;;;1999.90;999.90;;;18.40;99.90;;;;;;5055019;28;20037;-79
2022/09/10 07:30:15;;;;;;;1999.90;999.90;;;18.60;99.90;;;;;;5055063;28;20030;-72
2022/09/10 07:32:42;;;;;;;1999.90;999.90;;;18.70;99.90;;;;;;5055217;28;20365;-72
2022/09/10 07:35:08;;;;;;;1999.90;999.90;;;18.70;99.90;;;;;;5055247;28;20112;-72
2022/09/10 07:37:34;;;;;;;1999.90;999.90;;;18.70;99.90;;;;;;5055170;28;20021;-72
2022/09/10 07:40:00;;;;;;;1999.90;999.90;;;18.80;99.90;;;;;;5055478;28;20411;-79
2022/09/10 07:42:25;;;;;;;1999.90;999.90;;;19.00;99.90;;;;;;5038715;28;20104;-72
2022/09/10 07:44:51;;;;;;;1999.90;999.90;;;19.40;99.90;;;;;;5035344;28;20037;-79
2022/09/10 07:47:17;;;;;;;1999.90;999.90;;;20.90;99.90;;;;;;5034794;28;20537;-72
2022/09/10 07:49:46;;;;;;;1999.90;999.90;;;21.70;99.90;;;;;;5035157;28;20546;-72
2022/09/10 07:52:12;;;;;;;1999.90;999.90;;;20.90;99.90;;;;;;5035463;28;20048;-72
2022/09/10 07:54:38;;;;;;;1999.90;999.90;;;22.00;99.90;;;;;;5035253;28;20021;-79
2022/09/10 07:57:04;;;;;;;1999.90;999.90;;;22.10;99.90;;;;;;5035249;28;20057;-80
2022/09/10 07:59:30;;;;;;;1999.90;999.90;;;21.20;99.90;;;;;;5045520;28;20029;-72
2022/09/10 08:01:58;;;;;;;1999.90;999.90;;;20.90;99.90;;;;;;5054509;28;20071;-72
2022/09/10 08:04:24;;;;;;;1999.90;999.90;;;23.70;99.90;;;;;;5054637;28;20527;-80
2022/09/10 08:06:50;;;;;;;1999.90;999.90;;;25.20;99.90;;;;;;5054705;28;20025;-80
2022/09/10 08:09:18;;;;;;;1999.90;999.90;;;24.30;99.90;;;;;;5054539;28;20021;-79
2022/09/10 08:11:44;;;;;;;1999.90;999.90;;;26.60;99.90;;;;;;5054049;28;20060;-73
2022/09/10 08:14:09;;;;;;;1999.90;999.90;;;28.00;99.60;;;;;;5054437;28;20056;-73
2022/09/10 08:16:35;;;;;;;1999.90;999.90;;;25.20;99.90;;;;;;5054350;28;20033;-72
2022/09/10 08:19:01;;;;;;;1999.90;999.90;;;24.30;99.90;;;;;;5053446;28;20488;-72
2022/09/10 08:21:29;;;;;;;1999.90;999.90;;;25.90;99.90;;;;;;5054514;28;20025;-81
2022/09/10 08:23:54;;;;;;;1999.90;999.90;;;27.40;98.20;;;;;;5054252;28;20024;-73
2022/09/10 08:26:22;;;;;;;1999.90;999.90;;;28.10;97.60;;;;;;5054159;28;20017;-73
2022/09/10 08:28:49;;;;;;;1999.90;999.90;;;29.50;96.30;;;;;;5053875;28;20508;-73
2022/09/10 08:31:15;;;;;;;1999.90;999.90;;;29.50;95.50;;;;;;5053855;28;20082;-81
2022/09/10 08:33:46;;;;;;;1999.90;999.90;;;29.50;95.20;;;;;;5054072;28;20156;-81
2022/09/10 08:36:13;;;;;;;1999.90;999.90;;;28.40;96.00;;;;;;5053902;28;20491;-81
2022/09/10 08:38:40;;;;;;;1999.90;999.90;;;27.40;97.20;;;;;;5053935;28;20051;-73
2022/09/10 08:41:08;;;;;;;1999.90;999.90;;;27.40;97.60;;;;;;5048729;28;20037;-74
2022/09/10 08:43:48;;;;;;;1999.90;999.90;;;28.80;95.90;;;;;;5034017;28;20108;-73
2022/09/10 08:46:25;;;;;;;1999.90;999.90;;;29.10;96.10;;;;;;5033481;28;20021;-74
2022/09/10 08:49:24;;;;;;;1999.90;999.90;;;28.60;95.70;;;;;;5034106;28;20026;-81
2022/09/10 08:52:12;;;;;;;1999.90;999.90;;;29.10;95.60;;;;;;5034194;28;20118;-73
2022/09/10 08:55:05;;;;;;;1999.90;999.90;;;28.30;96.60;;;;;;5033553;28;20109;-74
2022/09/10 08:57:44;;;;;;;;;;;27.90;95.90;;;;;;5034324;28;20084;-81
2022/09/10 09:00:20;;;;;;;1999.90;999.90;;;27.80;96.70;;;;;;5049971;28;19912;-81
2022/09/10 09:03:01;;;;;;;1999.90;999.90;;;27.60;97.10;;;;;;5053564;28;20055;-81
2022/09/10 09:05:35;;;;;;;1999.90;999.90;;;26.70;97.80;;;;;;5053772;28;20091;-73
2022/09/10 09:08:02;;;;;;;1999.90;999.90;;;26.20;98.00;;;;;;5053735;28;20093;-73
2022/09/10 09:10:55;;;;;;;1999.90;999.90;;;27.10;97.50;;;;;;5053063;28;20031;-81
2022/09/10 09:13:26;;;;;;;1999.90;999.90;;;27.10;96.90;;;;;;5053323;28;20111;-73
2022/09/10 09:16:15;;;;;;;1999.90;999.90;;;27.30;96.80;;;;;;5053039;28;20087;-74
2022/09/10 09:18:59;;;;;;;1999.90;999.90;;;26.50;97.40;;;;;;5048888;28;20018;-74
2022/09/10 09:21:52;;;;;;;1999.90;999.90;;;26.00;98.00;;;;;;5033538;28;20400;-73
2022/09/10 09:24:24;;;;;;;;;;;26.00;98.30;;;;;;5033505;28;20045;-74
2022/09/10 09:26:53;;;;;;;1999.90;999.90;;;26.90;97.40;;;;;;5033362;28;19905;-81
2022/09/10 09:29:46;;;;;;;1999.90;999.90;;;26.70;97.20;;;;;;5032964;28;20128;-74
2022/09/10 09:32:16;;;;;;;1999.90;999.90;;;27.60;97.10;;;;;;5035009;28;20046;-74
2022/09/10 09:35:03;;;;;;;1999.90;999.90;;;28.00;96.60;;;;;;5033143;28;20029;-73
2022/09/10 09:37:30;;;;;;;1999.90;999.90;;;28.40;95.50;;;;;;5033043;28;20109;-81
2022/09/10 09:40:40;;;;;;;1999.90;999.90;;;27.40;96.60;;;;;;5083313;28;20029;-81
2022/09/10 09:43:35;;;;;;;1999.90;999.90;;;27.60;96.70;;;;;;5050213;28;20123;-74
2022/09/10 09:46:02;;;;;;;1999.90;999.90;;;27.00;97.50;;;;;;5052551;28;20051;-83
2022/09/10 09:48:36;;;;;;;1999.90;999.90;;;27.50;96.50;;;;;;5052893;28;20037;-72
2022/09/10 09:51:03;;;;;;;1999.90;999.90;;;28.30;96.00;;;;;;5053271;28;20024;-80
2022/09/10 09:53:29;;;;;;;1999.90;999.90;;;27.50;96.20;;;;;;5051887;28;20112;-74
2022/09/10 09:55:58;;;;;;;1999.90;999.90;;;26.60;97.50;;;;;;5053054;28;20095;-74
2022/09/10 09:58:25;;;;;;;1999.90;999.90;;;27.00;97.00;;;;;;5052535;28;20036;-82
2022/09/10 10:01:04;;;;;;;1999.90;999.90;;;27.10;96.70;;;;;;5052602;28;20052;-73
2022/09/10 10:03:57;;;;;;;1999.90;999.90;;;27.30;96.70;;;;;;5052967;28;20033;-82
2022/09/10 10:06:43;;;;;;;1999.90;999.90;;;26.80;96.60;;;;;;5052809;28;20028;-82
2022/09/10 10:09:42;;;;;;;1999.90;999.90;;;25.30;98.20;;;;;;5052789;28;20031;-73
2022/09/10 10:12:18;;;;;;;1999.90;999.90;;;25.20;98.90;;;;;;5040892;28;20032;-73
2022/09/10 10:14:44;;;;;;;1999.90;999.90;;;25.00;99.10;;;;;;5052015;28;20026;-82
2022/09/10 10:17:37;;;;;;;1999.90;999.90;;;25.10;99.10;;;;;;5052475;28;20490;-82
2022/09/10 10:20:06;;;;;;;1999.90;999.90;;;24.60;99.60;;;;;;5035855;28;20500;-82
2022/09/10 10:22:32;;;;;;;1999.90;999.90;;;24.30;99.90;;;;;;5033353;28;20404;-73
2022/09/10 10:25:03;;;;;;;1999.90;999.90;;;24.60;99.10;;;;;;5036387;28;20041;-73
2022/09/10 10:27:40;;;;;;;1999.90;999.90;;;24.80;99.30;;;;;;5036839;28;20484;-73
2022/09/10 10:30:06;;;;;;;1999.90;999.90;;;24.30;99.90;;;;;;5036048;28;20505;-81
2022/09/10 10:32:47;;;;;;;1999.90;999.90;;;24.00;99.90;;;;;;5036524;28;20031;-82
2022/09/10 10:35:27;;;;;;;1999.90;999.90;;;23.40;99.90;;;;;;5036340;28;20025;-80
2022/09/10 10:38:24;;;;;;;1999.90;999.90;;;23.50;99.90;;;;;;5037334;28;20026;-73
2022/09/10 10:41:16;;;;;;;1999.90;999.90;;;23.00;99.90;;;;;;5056672;28;20399;-81
2022/09/10 10:43:41;;;;;;;1999.90;999.90;;;22.60;99.90;;;;;;5056347;28;20438;-73
2022/09/10 10:46:20;;;;;;;1999.90;999.90;;;22.60;99.90;;;;;;5054643;28;20037;-74
2022/09/10 10:49:01;;;;;;;1999.90;999.90;;;22.70;99.90;;;;;;5056239;28;20079;-74
2022/09/10 10:51:45;;;;;;;1999.90;999.90;;;22.30;99.90;;;;;;5056402;28;20104;-82
2022/09/10 10:54:33;;;;;;;1999.90;999.90;;;22.10;99.90;;;;;;5056167;28;20029;-81
2022/09/10 10:57:34;;;;;;;1999.90;999.90;;;22.30;99.90;;;;;;5056272;28;20017;-81
2022/09/10 11:00:13;;;;;;;1999.90;999.90;;;22.40;99.90;;;;;;5055599;28;20028;-82
2022/09/10 11:02:54;;;;;;;1999.90;999.90;;;22.40;99.90;;;;;;5055807;28;20513;-73
2022/09/10 11:05:32;;;;;;;1999.90;999.90;;;22.20;99.90;;;;;;5054466;28;20377;-81
2022/09/10 11:08:02;;;;;;;1999.90;999.90;;;22.10;99.90;;;;;;5055792;28;20036;-81
2022/09/10 11:10:53;;;;;;;1999.90;999.90;;;22.00;99.90;;;;;;5055700;28;20087;-81
2022/09/10 11:13:30;;;;;;;1999.90;999.90;;;22.20;99.90;;;;;;5055770;28;20024;-73
2022/09/10 11:16:05;;;;;;;1999.90;999.90;;;22.10;99.90;;;;;;5055399;28;20021;-73
2022/09/10 11:18:52;;;;;;;1999.90;999.90;;;22.00;99.90;;;;;;5052754;28;20025;-73
2022/09/10 11:21:45;;;;;;;1999.90;999.90;;;22.10;99.90;;;;;;5034739;28;20036;-81
2022/09/10 11:24:36;;;;;;;1999.90;999.90;;;22.10;99.90;;;;;;5035583;28;20022;-81
2022/09/10 11:27:10;;;;;;;1999.90;999.90;;;22.00;99.90;;;;;;5035406;28;20109;-74
2022/09/10 11:29:47;;;;;;;1999.90;999.90;;;22.00;99.90;;;;;;5034923;28;20045;-73
2022/09/10 11:32:26;;;;;;;1999.90;999.90;;;22.10;99.90;;;;;;5035165;28;20109;-73
2022/09/10 11:35:26;;;;;;;1999.90;999.90;;;22.30;99.90;;;;;;5034534;28;20021;-81
2022/09/10 11:38:09;;;;;;;1999.90;999.90;;;22.30;99.90;;;;;;5034791;28;20079;-73
2022/09/10 11:40:54;;;;;;;1999.90;999.90;;;22.60;99.90;;;;;;5055191;28;20079;-73
2022/09/10 11:43:51;;;;;;;1999.90;999.90;;;22.80;99.90;;;;;;5055154;28;20021;-73
2022/09/10 11:46:33;;;;;;;1999.90;999.90;;;22.90;99.90;;;;;;5054767;28;20487;-81
2022/09/10 11:49:23;;;;;;;1999.90;999.90;;;22.80;99.90;;;;;;5053665;28;20381;-82
2022/09/10 11:51:50;;;;;;;1999.90;999.90;;;23.00;99.90;;;;;;5055175;28;20060;-73
2022/09/10 11:54:27;;;;;;;1999.90;999.90;;;23.40;99.90;;;;;;5055098;28;20067;-73
2022/09/10 11:57:23;;;;;;;1999.90;999.90;;;23.50;99.90;;;;;;5054839;28;20075;-73
2022/09/10 11:59:55;;;;;;;1999.90;999.90;;;23.30;99.90;;;;;;5054707;28;20059;-82
2022/09/10 12:02:35;;;;;;;1999.90;999.90;;;23.50;99.90;;;;;;5054599;28;20104;-82
2022/09/10 12:05:31;;;;;;;1999.90;999.90;;;23.10;99.90;;;;;;5055101;28;20040;-82
2022/09/10 12:08:12;;;;;;;1999.90;999.90;;;22.90;99.90;;;;;;5054659;28;20028;-73
2022/09/10 12:11:13;;;;;;;1999.90;999.90;;;22.90;99.90;;;;;;5054603;28;20025;-82
2022/09/10 12:13:48;;;;;;;1999.90;999.90;;;23.40;99.90;;;;;;5053237;28;20029;-82
2022/09/10 12:16:49;;;;;;;1999.90;999.90;;;23.70;99.90;;;;;;5054386;28;20104;-82
2022/09/10 12:19:54;;;;;;;1999.90;999.90;;;24.40;99.90;;;;;;5027944;28;20061;-73
2022/09/10 12:22:40;;;;;;;1999.90;999.90;;;24.60;99.90;;;;;;5033732;28;20032;-73
2022/09/10 12:25:15;;;;;;;1999.90;999.90;;;24.60;99.90;;;;;;5034717;28;20022;-82